Time;durP1;ratioP1;P1;durP2;ratioP2;P2;SDS_P1;SDS_P2;PMS_P1;PMS_P2;Temp;Humidity;BMP_temperature;BMP_pressure;BME280_temperature;BME280_humidity;BME280_pressure;Samples;Min_cycle;Max_cycle;Signal;HPM_P1;HPM_P2
2021/01/16 00:00:17;;;;;;;82.07;32.23;;;;;;;-4.87;81.01;99295.39;4078176;85;21762;-88
2021/01/16 00:06:28;;;;;;;87.47;35.17;;;;;;;-4.91;81.18;99297.78;4075140;85;21154;-88
2021/01/16 00:12:24;;;;;;;74.30;28.90;;;;;;;-4.96;80.83;99298.30;4081665;85;21512;-88
2021/01/16 00:18:25;;;;;;;60.50;23.57;;;;;;;-5.07;80.72;99296.69;4068540;85;21186;-88
2021/01/16 00:24:27;;;;;;;82.13;30.47;;;;;;;-5.15;80.73;99302.03;4082529;85;21574;-87
2021/01/16 00:30:32;;;;;;;75.73;28.20;;;;;;;-5.27;80.41;99316.70;4077654;85;21197;-88
2021/01/16 00:36:33;;;;;;;83.70;30.03;;;;;;;-5.40;80.67;99315.86;4077951;85;21233;-88
2021/01/16 00:42:43;;;;;;;76.40;28.60;;;;;;;-5.44;80.70;99316.94;4074762;85;21604;-88
2021/01/16 00:48:45;;;;;;;67.23;24.43;;;;;;;-5.69;80.60;99307.54;3986428;87;22101;-88
2021/01/16 00:54:47;;;;;;;50.33;20.50;;;;;;;-5.55;81.44;99307.31;3989721;87;21332;-88
2021/01/16 01:00:51;;;;;;;43.47;19.27;;;;;;;-5.33;81.31;99312.42;3972887;88;21311;-87
2021/01/16 01:06:53;;;;;;;43.60;17.67;;;;;;;-5.24;81.05;99310.30;4101008;85;21635;-88
2021/01/16 01:12:54;;;;;;;35.33;14.23;;;;;;;-5.16;81.14;99319.65;4092462;85;21356;-88
2021/01/16 01:18:56;;;;;;;38.77;17.23;;;;;;;-5.09;80.96;99315.64;4096143;85;21217;-88
2021/01/16 01:25:02;;;;;;;34.10;13.90;;;;;;;-5.30;81.01;99309.22;4087071;85;21353;-88
2021/01/16 01:31:03;;;;;;;35.83;14.95;;;;;;;-5.18;81.08;99316.44;4104526;84;21204;-88
2021/01/16 01:37:06;;;;;;;30.63;13.70;;;;;;;-5.16;80.95;99315.13;4086023;85;21396;-88
2021/01/16 01:43:07;;;;;;;37.33;12.43;;;;;;;-5.15;80.71;99319.91;4071531;85;21487;-88
2021/01/16 01:49:10;;;;;;;29.13;11.70;;;;;;;-5.11;80.48;99320.47;4078489;85;21208;-88
2021/01/16 01:55:12;;;;;;;34.23;12.40;;;;;;;-5.23;80.33;99323.91;4097566;84;21184;-88
2021/01/16 02:01:18;;;;;;;33.40;12.80;;;;;;;-5.20;80.52;99329.27;4028671;86;21603;-88
2021/01/16 02:07:28;;;;;;;27.57;11.67;;;;;;;-5.14;80.62;99332.20;3964434;88;21212;-87
2021/01/16 02:13:29;;;;;;;30.97;11.83;;;;;;;-5.13;80.70;99321.27;4088161;85;21668;-88
2021/01/16 02:19:46;;;;;;;28.80;13.00;;;;;;;-5.14;80.51;99321.00;4088099;85;21172;-88
2021/01/16 02:26:18;;;;;;;31.20;13.32;;;;;;;-5.17;80.60;99317.50;4102188;84;22425;-88
2021/01/16 02:32:21;;;;;;;37.17;13.23;;;;;;;-5.10;80.72;99318.58;4101928;84;21161;-88
2021/01/16 02:38:53;;;;;;;35.20;13.63;;;;;;;-5.08;80.80;99317.80;4122300;84;21334;-88
2021/01/16 02:45:06;;;;;;;33.60;13.07;;;;;;;-5.07;80.75;99318.86;4110122;84;21192;-88
2021/01/16 02:51:11;;;;;;;29.90;12.67;;;;;;;-5.09;80.63;99320.20;4095892;85;21169;-89
2021/01/16 02:57:14;;;;;;;27.57;10.67;;;;;;;-5.11;80.74;99327.67;4068796;85;21204;-88
2021/01/16 03:03:15;;;;;;;30.93;11.40;;;;;;;-5.19;80.29;99311.65;3995369;86;21650;-87
2021/01/16 03:09:19;;;;;;;28.77;11.80;;;;;;;-5.21;80.48;99314.30;3940046;88;21690;-87
2021/01/16 03:15:22;;;;;;;31.87;12.07;;;;;;;-5.20;80.42;99300.69;4065921;85;21145;-87
2021/01/16 03:21:23;;;;;;;33.30;11.40;;;;;;;-5.15;80.49;99291.87;4050045;85;21659;-87
2021/01/16 03:27:26;;;;;;;27.03;10.80;;;;;;;-5.33;80.24;99285.73;4077581;85;21682;-87
2021/01/16 03:33:27;;;;;;;31.10;12.20;;;;;;;-5.32;80.73;99286.80;4086330;85;21236;-87
2021/01/16 03:39:30;;;;;;;24.67;10.63;;;;;;;-5.33;80.71;99287.07;4082284;85;21141;-88
2021/01/16 03:45:31;;;;;;;22.23;9.40;;;;;;;-5.34;80.33;99296.16;4075856;85;21579;-87
2021/01/16 03:51:33;;;;;;;29.33;9.90;;;;;;;-5.33;80.47;99288.41;4070515;85;21385;-88
2021/01/16 03:57:35;;;;;;;24.80;9.50;;;;;;;-5.30;80.62;99294.55;4084483;85;21152;-87
2021/01/16 04:03:37;;;;;;;24.83;8.20;;;;;;;-5.30;80.46;99283.87;4076223;85;21563;-88
2021/01/16 04:09:40;;;;;;;22.97;10.37;;;;;;;-5.32;80.44;99273.98;4083972;85;21200;-88
2021/01/16 04:15:41;;;;;;;28.53;8.80;;;;;;;-5.55;80.95;99279.30;4090263;85;21205;-88
2021/01/16 04:21:43;;;;;;;21.57;9.47;;;;;;;-5.73;80.79;99266.44;4086169;85;21180;-88
2021/01/16 04:27:44;;;;;;;28.83;10.93;;;;;;;-5.66;81.16;99271.01;4098496;85;21189;-88
2021/01/16 04:33:46;;;;;;;26.97;9.97;;;;;;;-5.58;80.90;99261.16;4075876;85;21248;-89
2021/01/16 04:39:47;;;;;;;29.53;10.67;;;;;;;-5.54;81.07;99268.08;4070621;85;21161;-88
2021/01/16 04:45:50;;;;;;;28.53;10.67;;;;;;;-5.44;81.17;99268.11;4105063;84;21149;-88
2021/01/16 04:51:53;;;;;;;28.77;12.73;;;;;;;-5.34;81.25;99278.25;4121226;84;21196;-88
2021/01/16 04:58:09;;;;;;;30.87;11.87;;;;;;;-5.36;81.23;99271.59;4126251;84;21207;-88
2021/01/16 05:04:13;;;;;;;26.52;11.30;;;;;;;-5.46;81.15;99279.56;4094766;84;21324;-88
2021/01/16 05:10:15;;;;;;;28.13;12.47;;;;;;;-5.39;81.53;99272.94;4110463;84;22277;-88
2021/01/16 05:16:20;;;;;;;31.43;12.00;;;;;;;-5.34;81.37;99274.25;4093860;84;21690;-89
2021/01/16 05:22:22;;;;;;;18.50;8.73;;;;;;;-5.37;81.65;99284.13;4091102;84;21176;-88
2021/01/16 05:28:25;;;;;;;24.43;11.00;;;;;;;-5.33;81.73;99283.06;4113874;84;21204;-90
2021/01/16 05:34:29;;;;;;;25.47;10.83;;;;;;;-5.41;81.71;99277.73;4109576;84;21302;-89
2021/01/16 05:40:31;;;;;;;30.77;11.70;;;;;;;-5.39;81.50;99272.13;4121291;84;21365;-88
2021/01/16 05:46:33;;;;;;;26.13;11.60;;;;;;;-5.46;81.58;99271.56;4123605;84;21204;-88
2021/01/16 05:52:36;;;;;;;29.43;11.23;;;;;;;-5.46;81.76;99285.72;4117952;84;21613;-88
2021/01/16 05:58:40;;;;;;;32.40;13.23;;;;;;;-5.52;82.06;99277.96;4124563;84;21614;-87
2021/01/16 06:04:46;;;;;;;30.60;13.33;;;;;;;-5.47;81.90;99281.98;4127201;84;21349;-88
2021/01/16 06:10:53;;;;;;;31.67;15.73;;;;;;;-5.53;81.85;99279.04;4120024;84;21513;-88
2021/01/16 06:16:57;;;;;;;35.23;15.53;;;;;;;-5.57;82.41;99272.61;4122173;84;21339;-88
2021/01/16 06:23:01;;;;;;;42.60;16.43;;;;;;;-5.45;82.35;99277.97;4110206;84;21173;-88
2021/01/16 06:29:03;;;;;;;36.00;16.70;;;;;;;-5.36;82.60;99276.41;4099478;85;21397;-88
2021/01/16 06:35:11;;;;;;;35.77;16.03;;;;;;;-5.28;82.62;99267.07;4116505;84;21148;-88
2021/01/16 06:41:16;;;;;;;40.90;18.27;;;;;;;-5.22;82.60;99268.14;4118669;84;21193;-88
2021/01/16 06:47:21;;;;;;;46.37;19.37;;;;;;;-5.19;82.77;99266.28;4118311;84;21232;-88
2021/01/16 06:53:26;;;;;;;45.63;20.23;;;;;;;-5.25;82.93;99244.66;4008595;86;21214;-87
2021/01/16 06:59:28;;;;;;;43.77;20.50;;;;;;;-5.25;82.93;99244.66;4122864;84;21246;-89
2021/01/16 07:32:07;;;;;;;55.07;24.90;;;;;;;-4.80;83.53;99253.17;4189069;79;68293;-86
2021/01/16 07:38:11;;;;;;;60.10;25.47;;;;;;;-4.68;83.73;99248.34;4176323;85;21238;-84
2021/01/16 07:44:16;;;;;;;56.03;26.07;;;;;;;-4.66;83.59;99244.88;4177781;85;21226;-85
2021/01/16 07:50:24;;;;;;;59.60;27.10;;;;;;;-4.61;83.72;99244.87;4167771;84;21153;-85
2021/01/16 07:56:37;;;;;;;63.03;26.27;;;;;;;-4.52;83.74;99245.09;4158454;83;21158;-84
2021/01/16 08:02:56;;;;;;;57.47;25.70;;;;;;;-4.41;83.73;99239.47;4162123;83;21158;-85
2021/01/16 08:09:08;;;;;;;58.07;24.73;;;;;;;-4.35;84.04;99243.72;4168107;83;21210;-83
2021/01/16 08:15:13;;;;;;;52.70;23.40;;;;;;;-4.23;83.87;99234.06;4150769;83;21166;-84
2021/01/16 08:21:15;;;;;;;62.53;26.85;;;;;;;-4.12;83.99;99240.42;4132209;83;21635;-85
2021/01/16 08:27:20;;;;;;;59.10;25.70;;;;;;;-4.06;83.89;99234.00;4163882;84;21185;-84
2021/01/16 08:33:35;;;;;;;58.03;27.13;;;;;;;-3.98;83.99;99217.39;4168922;85;21200;-85
2021/01/16 08:39:43;;;;;;;50.50;24.93;;;;;;;-3.76;84.13;99231.16;4173583;84;21181;-85
2021/01/16 08:45:44;;;;;;;56.07;24.40;;;;;;;-3.62;83.94;99236.16;4178462;84;21163;-85
2021/01/16 08:51:53;;;;;;;54.37;23.40;;;;;;;-3.54;83.79;99232.89;4174835;84;21650;-85
2021/01/16 08:58:08;;;;;;;48.23;21.73;;;;;;;-3.30;83.68;99239.69;4145902;84;21177;-85
2021/01/16 09:04:21;;;;;;;47.17;22.27;;;;;;;-3.12;83.57;99229.66;4269571;82;21767;-86
2021/01/16 09:10:25;;;;;;;48.37;21.60;;;;;;;-2.85;83.81;99234.52;4283495;82;21193;-85
2021/01/16 09:16:34;;;;;;;50.33;20.70;;;;;;;-2.64;83.56;99243.42;4247548;82;21304;-86
2021/01/16 09:22:36;;;;;;;43.20;20.93;;;;;;;-2.62;83.20;99246.63;4247529;82;21221;-87
2021/01/16 09:28:54;;;;;;;44.47;22.57;;;;;;;-2.54;82.98;99231.80;4248316;82;21224;-88
2021/01/16 09:34:57;;;;;;;41.67;19.63;;;;;;;-2.50;83.15;99237.64;4187218;83;21173;-87
2021/01/16 09:40:59;;;;;;;38.27;18.77;;;;;;;-2.48;82.86;99232.81;4220032;83;21165;-87
2021/01/16 09:47:02;;;;;;;41.27;18.30;;;;;;;-2.62;82.51;99230.55;4194202;83;21653;-87
2021/01/16 09:53:04;;;;;;;32.97;16.47;;;;;;;-2.59;82.94;99227.30;4189637;83;21157;-87
2021/01/16 09:59:07;;;;;;;44.23;19.10;;;;;;;-2.61;82.79;99221.94;4187157;83;21626;-87
2021/01/16 10:05:11;;;;;;;44.57;19.70;;;;;;;-2.69;82.78;99218.56;4222283;83;21646;-87
2021/01/16 10:11:16;;;;;;;43.43;19.93;;;;;;;-2.67;83.07;99211.83;4199300;83;21157;-87
2021/01/16 10:17:19;;;;;;;39.03;18.33;;;;;;;-2.65;82.85;99219.59;4138072;84;21182;-88
2021/01/16 10:23:28;;;;;;;42.03;18.07;;;;;;;-2.72;82.58;99216.42;4135667;84;21634;-88
2021/01/16 10:29:40;;;;;;;39.20;18.40;;;;;;;-2.68;82.94;99201.39;4122326;84;21167;-87
2021/01/16 10:35:43;;;;;;;40.33;17.50;;;;;;;-2.55;82.87;99194.03;4157215;83;21237;-87
2021/01/16 10:41:46;;;;;;;41.47;18.80;;;;;;;-2.53;82.37;99185.14;4160399;83;21176;-88
2021/01/16 10:47:49;;;;;;;42.33;18.47;;;;;;;-2.47;82.52;99179.44;4099724;85;21619;-87
2021/01/16 10:53:56;;;;;;;44.30;19.60;;;;;;;-2.34;82.42;99177.95;4108186;85;21185;-88
2021/01/16 11:00:00;;;;;;;44.73;18.63;;;;;;;-2.29;82.40;99165.30;4179020;83;21210;-88
2021/01/16 11:06:10;;;;;;;38.23;17.57;;;;;;;-2.44;82.34;99166.80;4180740;83;21160;-88
2021/01/16 11:12:12;;;;;;;41.17;18.67;;;;;;;-2.37;82.17;99157.08;4169648;83;21229;-88
2021/01/16 11:18:27;;;;;;;40.50;17.57;;;;;;;-2.31;82.43;99150.03;4167103;83;21168;-87
2021/01/16 11:24:55;;;;;;;35.00;17.10;;;;;;;-2.30;82.18;99138.21;4164515;83;21680;-86
2021/01/16 11:31:08;;;;;;;44.50;21.13;;;;;;;-2.42;82.19;99134.34;4197494;82;21306;-88
2021/01/16 11:37:09;;;;;;;48.73;21.53;;;;;;;-2.48;82.49;99131.48;4176168;84;21206;-87
2021/01/16 11:43:13;;;;;;;44.30;20.17;;;;;;;-2.42;82.59;99130.33;4196947;83;21612;-88
2021/01/16 11:49:15;;;;;;;42.10;19.37;;;;;;;-2.28;82.45;99124.52;4210132;83;21936;-87
2021/01/16 11:55:17;;;;;;;36.37;18.77;;;;;;;-2.25;82.48;99122.06;4225473;83;21230;-88
2021/01/16 12:01:20;;;;;;;32.77;15.70;;;;;;;-2.19;82.43;99121.44;4211117;83;21355;-88
2021/01/16 12:07:21;;;;;;;34.80;16.77;;;;;;;-2.14;81.93;99103.94;4218317;83;21199;-89
2021/01/16 12:13:23;;;;;;;34.03;15.57;;;;;;;-2.16;81.72;99107.48;4208667;83;21131;-89
2021/01/16 12:19:26;;;;;;;34.13;15.67;;;;;;;-2.17;81.60;99101.30;4219202;83;21158;-90
2021/01/16 12:25:34;;;;;;;31.77;14.77;;;;;;;-2.30;81.28;99091.29;4221246;83;21208;-89
2021/01/16 12:31:35;;;;;;;32.73;14.80;;;;;;;-2.31;81.73;99081.66;4175428;83;21324;-89
2021/01/16 12:37:39;;;;;;;28.23;13.63;;;;;;;-2.29;81.30;99081.38;4157667;83;21928;-90
2021/01/16 12:43:46;;;;;;;27.47;13.87;;;;;;;-2.45;81.04;99070.59;4158631;83;21202;-88
2021/01/16 12:49:50;;;;;;;30.87;14.77;;;;;;;-2.45;81.33;99071.39;4161007;83;21600;-90
2021/01/16 12:55:52;;;;;;;30.47;16.17;;;;;;;-2.37;81.35;99066.73;4157414;83;21668;-90
2021/01/16 13:01:54;;;;;;;29.97;13.80;;;;;;;-2.41;81.37;99063.58;4162060;83;21615;-90
2021/01/16 13:07:57;;;;;;;34.92;14.93;;;;;;;-2.37;81.28;99068.08;4159144;83;21170;-90
2021/01/16 13:14:01;;;;;;;33.50;15.37;;;;;;;-2.49;81.33;99061.55;4154250;83;21205;-89
2021/01/16 13:20:08;;;;;;;32.60;14.13;;;;;;;-2.62;81.48;99056.34;4153758;83;21391;-90
2021/01/16 13:26:13;;;;;;;27.53;13.33;;;;;;;-2.68;81.64;99064.20;4154725;83;21182;-90
2021/01/16 13:32:21;;;;;;;31.33;12.67;;;;;;;-2.75;81.59;99059.72;4197442;82;21343;-89
2021/01/16 13:38:33;;;;;;;32.10;15.50;;;;;;;-2.97;81.63;99056.77;4224018;83;21217;-90
2021/01/16 13:44:36;;;;;;;30.57;13.57;;;;;;;-3.13;81.90;99060.69;4231866;82;21628;-90
2021/01/16 13:50:37;;;;;;;23.20;11.53;;;;;;;-3.26;81.79;99062.72;4228518;82;21207;-89
2021/01/16 13:56:50;;;;;;;27.83;11.70;;;;;;;-3.31;81.99;99053.39;4236207;82;21188;-89
2021/01/16 14:02:52;;;;;;;26.10;11.70;;;;;;;-3.38;81.94;99047.03;4242976;82;21737;-90
2021/01/16 14:08:56;;;;;;;22.63;9.57;;;;;;;-3.47;81.71;99044.72;4223799;82;21642;-89
2021/01/16 14:15:06;;;;;;;21.00;10.40;;;;;;;-3.51;81.81;99031.63;4236196;82;21145;-89
2021/01/16 14:21:19;;;;;;;25.50;13.10;;;;;;;-3.57;81.67;99033.32;4232791;82;21203;-90
2021/01/16 14:27:25;;;;;;;26.33;11.93;;;;;;;-3.56;81.65;99038.92;4232933;82;21162;-89
2021/01/16 14:33:26;;;;;;;21.23;9.05;;;;;;;-3.61;81.27;99034.42;4220856;82;21792;-89
2021/01/16 14:39:28;;;;;;;25.77;11.47;;;;;;;-3.65;81.30;99034.70;4217277;83;22166;-88
2021/01/16 14:45:29;;;;;;;21.37;7.83;;;;;;;-3.74;81.16;99041.75;4214553;83;21253;-91
2021/01/16 14:51:32;;;;;;;20.67;9.33;;;;;;;-3.84;80.80;99039.18;4217029;83;21225;-89
2021/01/16 14:57:43;;;;;;;21.80;9.57;;;;;;;-3.97;81.12;99039.81;4216296;83;21158;-90
2021/01/16 15:03:45;;;;;;;23.50;11.07;;;;;;;-3.98;81.25;99037.42;4208788;83;21185;-90
2021/01/16 15:09:46;;;;;;;28.90;12.47;;;;;;;-4.05;81.38;99034.25;4218381;83;21327;-91
2021/01/16 15:15:52;;;;;;;28.80;12.93;;;;;;;-4.03;81.67;99040.13;4210497;83;21217;-89
2021/01/16 15:21:55;;;;;;;30.77;10.93;;;;;;;-4.11;81.35;99034.03;4230755;83;21291;-89
2021/01/16 15:27:57;;;;;;;28.40;11.20;;;;;;;-4.22;81.10;99032.51;4211342;83;21208;-87
2021/01/16 15:33:58;;;;;;;23.40;9.47;;;;;;;-4.43;81.15;99043.09;4163548;83;21324;-88
2021/01/16 15:40:00;;;;;;;23.17;9.87;;;;;;;-4.50;81.15;99046.59;4161328;83;21185;-88
2021/01/16 15:46:07;;;;;;;28.77;11.63;;;;;;;-4.55;81.24;99036.73;4154863;83;21332;-89
2021/01/16 15:52:09;;;;;;;45.80;18.10;;;;;;;-4.56;81.44;99043.69;4158694;83;21190;-90
2021/01/16 15:58:10;;;;;;;44.90;18.73;;;;;;;-4.64;81.53;99042.40;4156904;83;21182;-90
2021/01/16 16:04:18;;;;;;;49.23;20.10;;;;;;;-4.59;81.81;99047.72;4152381;83;21245;-89
2021/01/16 16:10:20;;;;;;;42.23;18.17;;;;;;;-4.58;81.71;99043.16;4155182;83;22252;-89
2021/01/16 16:16:22;;;;;;;50.37;18.67;;;;;;;-4.65;81.71;99020.74;4152191;83;21213;-88
2021/01/16 16:22:25;;;;;;;47.33;18.07;;;;;;;-4.68;81.75;99023.97;4160514;83;21226;-88
2021/01/16 16:28:26;;;;;;;50.27;18.90;;;;;;;-4.70;81.85;99020.80;4158059;83;21198;-87
2021/01/16 16:34:28;;;;;;;51.83;19.50;;;;;;;-4.82;81.87;99021.11;4205743;83;21213;-88
2021/01/16 16:40:37;;;;;;;49.13;19.73;;;;;;;-4.88;81.88;99012.06;4207016;83;21529;-87
2021/01/16 16:46:38;;;;;;;49.53;19.13;;;;;;;-4.88;81.94;99006.72;4209068;83;21903;-89
2021/01/16 16:52:40;;;;;;;40.57;16.70;;;;;;;-4.86;81.86;98993.38;4215246;83;22216;-87
2021/01/16 16:58:42;;;;;;;37.77;15.60;;;;;;;-4.97;81.77;98981.67;4210683;83;21276;-89
2021/01/16 17:04:43;;;;;;;41.40;15.93;;;;;;;-4.95;81.63;98982.20;4214911;83;21151;-88
2021/01/16 17:10:45;;;;;;;34.53;14.20;;;;;;;-4.96;81.91;98971.25;4233027;83;21177;-87
2021/01/16 17:16:47;;;;;;;39.57;13.13;;;;;;;-4.96;81.98;98966.72;4222877;83;21201;-88
2021/01/16 17:22:48;;;;;;;34.97;12.87;;;;;;;-4.92;81.93;98951.73;4198014;83;21209;-86
2021/01/16 17:28:50;;;;;;;25.83;9.80;;;;;;;-4.95;81.82;98949.61;4223927;83;21158;-87
2021/01/16 17:34:54;;;;;;;24.70;10.90;;;;;;;-4.98;81.78;98937.38;4215987;83;21589;-87
2021/01/16 17:40:55;;;;;;;27.40;9.20;;;;;;;-5.00;81.81;98924.83;4218254;83;21141;-87
2021/01/16 17:46:57;;;;;;;26.50;10.73;;;;;;;-5.02;81.73;98917.09;4210217;83;21350;-87
2021/01/16 17:53:00;;;;;;;31.33;9.20;;;;;;;-5.03;81.96;98907.48;4215536;83;21658;-87
2021/01/16 18:06:07;;;;;;;24.47;9.50;;;;;;;-5.03;82.38;98892.80;4196664;83;21141;-89
2021/01/16 18:12:11;;;;;;;26.10;10.23;;;;;;;-5.00;82.76;98880.78;4216686;83;21205;-87
2021/01/16 18:18:12;;;;;;;24.83;9.63;;;;;;;-5.03;82.80;98880.78;4208749;83;21584;-86
2021/01/16 18:24:15;;;;;;;21.20;9.00;;;;;;;-5.07;82.97;98867.74;4214887;83;21645;-88
2021/01/16 18:30:17;;;;;;;23.50;9.87;;;;;;;-5.05;83.03;98863.45;4205582;82;21238;-87
2021/01/16 18:36:18;;;;;;;23.03;10.47;;;;;;;-5.03;83.36;98855.42;4197901;83;22325;-88
2021/01/16 18:42:20;;;;;;;22.63;10.23;;;;;;;-5.06;83.25;98846.64;4218251;83;21155;-88
2021/01/16 18:48:22;;;;;;;29.33;11.73;;;;;;;-5.01;83.26;98840.46;4214237;83;21337;-91
2021/01/16 18:54:24;;;;;;;26.00;10.27;;;;;;;-4.99;83.27;98827.64;4201251;83;21169;-89
2021/01/16 19:00:25;;;;;;;25.07;10.47;;;;;;;-5.01;83.31;98829.25;4221276;83;21615;-89
2021/01/16 19:06:37;;;;;;;30.33;13.43;;;;;;;-5.00;83.36;98824.72;4222796;83;21185;-89
2021/01/16 19:12:38;;;;;;;29.60;12.13;;;;;;;-5.04;83.49;98821.00;4227720;83;21646;-90
2021/01/16 19:18:40;;;;;;;28.20;12.07;;;;;;;-5.02;83.42;98812.99;4224650;83;21313;-88
2021/01/16 19:24:41;;;;;;;27.27;10.90;;;;;;;-4.97;83.50;98819.63;4210933;83;21872;-89
2021/01/16 19:30:43;;;;;;;29.27;12.43;;;;;;;-4.95;83.56;98809.45;4223304;83;21614;-88
2021/01/16 19:36:45;;;;;;;25.60;10.33;;;;;;;-5.01;83.76;98797.22;4160755;83;21205;-88
2021/01/16 19:42:49;;;;;;;22.13;10.07;;;;;;;-4.98;83.70;98789.99;4158248;83;21151;-89
2021/01/16 19:48:50;;;;;;;23.27;10.47;;;;;;;-4.95;83.66;98792.66;4160847;83;21190;-89
2021/01/16 19:54:53;;;;;;;26.47;10.57;;;;;;;-4.95;83.73;98783.31;4151757;83;21210;-87
2021/01/16 20:00:54;;;;;;;28.43;12.67;;;;;;;-4.93;83.78;98776.61;4157130;83;21371;-88
2021/01/16 20:06:56;;;;;;;24.13;10.23;;;;;;;-4.91;83.85;98770.45;4159734;83;21560;-89
2021/01/16 20:12:58;;;;;;;25.87;11.70;;;;;;;-4.88;83.82;98773.91;4158679;83;21241;-87
2021/01/16 20:18:59;;;;;;;24.33;9.87;;;;;;;-4.87;83.89;98760.02;4156547;83;21792;-87
2021/01/16 20:25:03;;;;;;;29.77;12.00;;;;;;;-4.84;84.31;98756.78;4153593;83;21327;-88
2021/01/16 20:31:05;;;;;;;31.00;12.07;;;;;;;-4.84;84.16;98756.78;4160310;80;21226;-88
2021/01/16 20:37:07;;;;;;;28.43;12.67;;;;;;;-4.87;84.28;98746.11;4162898;83;21174;-88
2021/01/16 20:43:09;;;;;;;26.87;12.10;;;;;;;-4.84;84.21;98745.55;4166879;83;21314;-91
2021/01/16 20:49:10;;;;;;;25.77;11.90;;;;;;;-4.81;84.28;98732.97;4168115;83;21178;-90
2021/01/16 20:55:14;;;;;;;29.87;13.43;;;;;;;-4.81;84.25;98728.19;4163859;83;21198;-88
2021/01/16 21:01:16;;;;;;;32.03;14.17;;;;;;;-4.84;84.43;98722.08;4166257;83;21311;-88
2021/01/16 21:07:18;;;;;;;30.17;11.90;;;;;;;-4.83;84.51;98722.33;4165399;83;21227;-89
2021/01/16 21:13:21;;;;;;;32.87;12.40;;;;;;;-4.85;84.57;98715.13;4161620;83;21631;-86
2021/01/16 21:19:23;;;;;;;31.73;13.87;;;;;;;-4.87;85.02;98710.63;4167852;83;21807;-88
2021/01/16 21:25:26;;;;;;;38.30;15.43;;;;;;;-4.89;84.79;98689.52;4163276;83;21576;-88
2021/01/16 21:31:37;;;;;;;35.33;15.30;;;;;;;-4.88;84.84;98694.33;4169990;83;21574;-90
2021/01/16 21:37:39;;;;;;;39.20;14.03;;;;;;;-4.86;84.96;98689.52;4216179;83;21183;-91
2021/01/16 21:43:40;;;;;;;29.50;13.13;;;;;;;-4.86;85.38;98684.17;4218971;83;21769;-87
2021/01/16 21:49:45;;;;;;;32.50;12.80;;;;;;;-4.83;85.49;98687.61;4205950;83;21626;-89
2021/01/16 21:55:47;;;;;;;36.60;13.80;;;;;;;-4.84;85.31;98688.70;4219139;83;21230;-88
2021/01/16 22:01:49;;;;;;;32.93;14.17;;;;;;;-4.83;85.49;98695.63;4214396;83;21217;-89
2021/01/16 22:07:50;;;;;;;39.27;17.33;;;;;;;-4.83;85.36;98683.61;4211055;83;21697;-90
2021/01/16 22:13:52;;;;;;;35.27;15.50;;;;;;;-4.80;85.43;98697.72;4220266;83;21185;-88
2021/01/16 22:19:54;;;;;;;30.97;13.63;;;;;;;-4.77;85.31;98707.84;4224949;83;21792;-89
2021/01/16 22:25:55;;;;;;;27.70;12.63;;;;;;;-4.82;85.44;98692.67;4215735;83;21153;-90
2021/01/16 22:31:57;;;;;;;32.73;14.77;;;;;;;-4.76;85.43;98689.95;4210535;82;21162;-90
2021/01/16 22:37:58;;;;;;;32.50;14.90;;;;;;;-4.77;85.42;98676.33;4204035;83;21172;-87
2021/01/16 22:44:01;;;;;;;37.70;14.87;;;;;;;-4.74;85.44;98667.77;4210491;83;21596;-90
2021/01/16 22:50:04;;;;;;;31.97;14.70;;;;;;;-4.75;85.45;98658.95;4195840;83;21233;-89
2021/01/16 22:56:08;;;;;;;39.90;16.43;;;;;;;-4.70;85.44;98660.77;4204351;83;21166;-89
2021/01/16 23:02:09;;;;;;;36.33;15.30;;;;;;;-4.66;85.44;98653.77;4198253;83;21225;-89
2021/01/16 23:08:13;;;;;;;35.73;16.70;;;;;;;-4.64;85.52;98650.28;4202238;83;21572;-90
2021/01/16 23:14:15;;;;;;;43.00;16.47;;;;;;;-4.65;85.52;98643.36;4205997;83;21197;-89
2021/01/16 23:20:16;;;;;;;51.20;17.63;;;;;;;-4.72;85.82;98642.37;4211055;83;21164;-90
2021/01/16 23:26:18;;;;;;;47.10;18.60;;;;;;;-4.71;85.75;98638.61;4179722;83;21182;-88
2021/01/16 23:32:20;;;;;;;44.50;18.37;;;;;;;-4.65;85.80;98630.78;4205531;83;21179;-88
2021/01/16 23:38:24;;;;;;;37.50;18.13;;;;;;;-4.62;85.84;98621.42;4213100;83;21194;-90
2021/01/16 23:44:26;;;;;;;38.27;15.97;;;;;;;-4.65;85.68;98604.64;4214032;83;21194;-90
2021/01/16 23:50:28;;;;;;;39.47;18.13;;;;;;;-4.66;85.66;98597.69;4219166;83;21199;-89
2021/01/16 23:56:34;;;;;;;36.77;16.20;;;;;;;-4.64;85.63;98599.01;4224374;83;21181;-89
